Tiempo atmosférico en la estación meteorológica de Ceuta, Ceuta (87 m.)



Fecha
DESCASC
Temp. máxima en grados centígrados (hora)
DESCASC
Temp. mínima en grados centígrados (hora)
DESCASC
Temp. media en grados centígrados
DESCASC
Racha de viento máxima en m/sg (hora)
DESCASC
Velocidad máxima media en intervalos de 10 minutos(hora)
DESCASC
Precipitaciones diarias en mm
DESCASC
Precipitaciones de 00:00 a 06:00 en mm
DESCASC
Precipitaciones de 06:00 a 12:00 en mm
DESCASC
Precipitaciones de 12:00 a 18:00 en mm
DESCASC
Precipitaciones de 18:00 a 24:00 en mm
DESCASC
04-06-2019 28.1 (15:40) 15.4 (00:00) 21.8 10.28 (16:50) 4.72 (13:30) 0.3 0 0.3 0 0
05-06-2019 23.1 (13:50) 17 (00:00) 20.1 12.78 (10:00) 5.83 (23:10) 0 0 0 0 0
19-06-2019 27.9 (17:50) 17.9 (00:00) 22.9 14.72 (23:50) 6.39 (23:50) 0 0 0 0 0
18-06-2019 26.6 (18:20) 16.2 (00:00) 21.4 14.72 (23:20) 8.61 (23:20) 0 0 0 0 0
17-06-2019 22.2 (13:20) 15.8 (00:00) 19 6.39 (18:10) 3.89 (16:10) 0 0 0 0 0
16-06-2019 23.3 (14:10) 17 (00:00) 20.1 4.72 (13:40) 3.06 (16:00) 0 0 0 0 0
15-06-2019 28.2 (16:30) 16.4 (00:00) 22.3 12.22 (11:20) 6.11 (09:40) 0 0 0 0 0
14-06-2019 21.8 (14:10) 16.4 (00:00) 19.1 13.89 (13:10) 6.11 (16:40) 0 0 0 0 0
13-06-2019 23 (13:20) 18.1 (00:00) 20.6 9.44 (12:10) 5.83 (12:10) 0 0 0 0 0
12-06-2019 21.6 (16:40) 17.5 (00:00) 19.6 18.33 (05:10) 7.22 (05:20) 0 0 0 0 0
11-06-2019 23.2 (13:40) 18.2 (00:00) 20.7 16.39 (03:40) 7.22 (15:50) 0 0 0 0 0
10-06-2019 23.7 (16:40) 17.6 (00:00) 20.7 15.83 (04:10) 7.78 (02:10) 0 0 0 0 0
09-06-2019 24.9 (17:20) 18.2 (00:00) 21.6 12.5 (21:20) 5.56 (23:00) 0 0 0 0 0
08-06-2019 23.9 (15:50) 17.7 (00:00) 20.8 7.78 (17:00) 4.72 (18:10) 0 0 0 0 0
07-06-2019 25.3 (16:30) 17.2 (00:00) 21.3 13.06 (01:50) 6.11 (01:50) 0 0 0 0 0
06-06-2019 25.3 (15:50) 17.4 (00:00) 21.3 14.72 (19:50) 6.39 (19:50) 0 0 0 0 0
21-05-2019 25.6 (18:30) 17.7 (05:40) 21.7 11.67 (23:10) 5 (03:50) 0 0 0 0 0
03-06-2019 21.9 (14:50) 17.8 (00:00) 19.8 6.11 (19:20) 3.89 (18:50) 0 0 0 0 0
02-06-2019 21.1 (11:50) 17.2 (00:00) 19.2 7.78 (12:50) 5.28 (12:30) 0 0 0 0 0
01-06-2019 22.1 (13:10) 17.3 (00:00) 19.7 9.72 (13:40) 6.67 (14:20) 0 0 0 0 0
31-05-2019 21.8 (13:30) 17.5 (00:00) 19.6 12.5 (12:30) 7.5 (13:00) 0 0 0 0 0
30-05-2019 21.7 (16:40) 18 (00:00) 19.9 13.89 (12:00) 8.33 (15:30) 0 0 0 0 0
29-05-2019 23.2 (15:10) 17.9 (00:00) 20.6 10.83 (13:00) 7.5 (14:20) 0 0 0 0 0
28-05-2019 30.8 (15:30) 19.2 (00:00) 25 5.28 (15:00) 3.61 (16:50) 0 0 0 0 0
27-05-2019 25.4 (18:40) 17 (00:00) 21.2 6.11 (16:30) 4.72 (17:20) 0 0 0 0 0
26-05-2019 22.4 (19:00) 17 (00:00) 19.7 6.94 (19:50) 4.44 (20:00) 0 0 0 0 0
25-05-2019 22.1 (02:00) 17.3 (00:00) 19.7 16.39 (02:00) 8.33 (02:30) 0 0 0 0 0
24-05-2019 24.6 (10:50) 17.2 (00:00) 20.9 14.44 (18:10) 6.11 (17:40) 0 0 0 0 0
23-05-2019 23.5 (18:10) 17 (00:00) 20.3 5.56 (13:20) 3.61 (17:50) 0 0 0 0 0
22-05-2019 21.6 (00:00) 15.8 (00:00) 18.7 6.67 (12:20) 3.89 (12:00) 0 0 0 0 0

Gráficas

Temp. máximas Temp. mínimas Temp. medias Precipitaciones Rachas de viento máximas Velocidades máximas media en intervalos de 10 minutos

Datos horarios

Fecha y hora oficial Temperatura (ºC) Velocidad del viento (km/h) Dirección del viento Racha (km/h) Dirección de racha Precipitación (mm) Presión (hPa) Tendencia (hPa) Humedad (%)
2019-06-19 23:00:00 20.4 14 Oeste 43 Oeste 0 1004.6 0.7 69
2019-06-19 22:00:00 21 17 Oeste 41 Oeste 0 1004.2 0.4 64
2019-06-19 21:00:00 22 15 Oeste 41 Oeste 0 1003.7 -0.6 57
2019-06-19 20:00:00 23.2 14 Oeste 41 Oeste 0 1003.9 -0.6 56
2019-06-19 19:00:00 25 18 Oeste 36 Noroeste 0 1003.8 -1.5 51
2019-06-19 18:00:00 27.2 11 Oeste 30 Noroeste 0 1004.3 -1.3 43
2019-06-19 17:00:00 27.1 13 Oeste 42 Oeste 0 1004.5 -1.8 45
2019-06-19 16:00:00 26.6 13 Oeste 33 Noroeste 0 1005.3 -1.1 45
2019-06-19 15:00:00 26.2 15 Oeste 40 Sudoeste 0 1005.6 -0.3 47
2019-06-19 14:00:00 25.6 10 Oeste 37 Noroeste 0 1006.3 0.4 50
2019-06-19 13:00:00 25.5 12 Oeste 30 Oeste 0 1006.4 0.3 48
2019-06-19 12:00:00 24.9 9 Oeste 35 Noroeste 0 1005.9 -0.2 52
2019-06-19 11:00:00 24.2 10 Noroeste 28 Oeste 0 1005.9 -0.3 57
2019-06-19 10:00:00 23.3 6 Este 30 Norte 0 1006.1 0.1 62
2019-06-19 09:00:00 21.3 9 Oeste 32 Noroeste 0 1006.1 0.2 70
2019-06-19 08:00:00 19.2 4 Oeste 12 Sudoeste 0 1006.2 0.4 81
2019-06-19 07:00:00 18.4 3 Sur 7 Sudoeste 0 1006 -0.1 84
2019-06-19 06:00:00 17.9 3 Noroeste 10 Sudoeste 0 1005.9 -0.5 85
2019-06-19 05:00:00 18.3 2 Norte 13 Sur 0 1005.8 -0.6 83
2019-06-19 04:00:00 18.7 3 Oeste 19 Noroeste 0 1006.1 -0.7 81
2019-06-19 03:00:00 18.8 8 Noroeste 35 Noroeste 0 1006.4 0 81
2019-06-19 02:00:00 19.1 20 Noroeste 37 Noroeste 0 1006.4 0.5 79
2019-06-19 01:00:00 19 15 Noroeste 39 Noroeste 0 1006.8 1.5 78
2019-06-19 00:00:00 20.1 20 Noroeste 53 Noroeste 0 1006.4 1.2 70
2019-06-18 23:00:00 19.9 27 Noroeste 50 Noroeste 0 1005.9 0.7 73
2019-06-18 22:00:00 20.3 26 Noroeste 49 Oeste 0 1005.3 0.2 69
2019-06-18 21:00:00 21.5 20 Noroeste 49 Noroeste 0 1005.2 -0.2 53
2019-06-18 20:00:00 22.7 12 Oeste 32 Noroeste 0 1005.2 -0.3 52
2019-06-18 19:00:00 25.7 8 Sudoeste 31 Oeste 0 1005.1 -0.9 35
2019-06-18 18:00:00 26.4 8 Oeste 29 Noroeste 0 1005.4 -0.7 33
2019-06-18 17:00:00 25.3 17 Noroeste 33 Noroeste 0 1005.5 -0.9 42
2019-06-18 16:00:00 24.7 6 Noroeste 26 Sudoeste 0 1006 -0.5 44
2019-06-18 15:00:00 25.7 10 Sudoeste 24 Sudoeste 0 1006.1 -0.3 41
2019-06-18 14:00:00 24.9 7 Noroeste 26 Noroeste 0 1006.4 -0.1 46
2019-06-18 13:00:00 24.2 7 Este 20 Sur 0 1006.5 -0.1 49
2019-06-18 12:00:00 23 8 Sudeste 17 Sur 0 1006.4 0.1 51
2019-06-18 11:00:00 22.6 8 Noroeste 16 Noroeste 0 1006.5 0.7 57
2019-06-18 10:00:00 21 8 Este 15 Este 0 1006.6 1 64
2019-06-18 09:00:00 20.1 4 Este 7 Este 0 1006.3 1 72
2019-06-18 08:00:00 17.5 4 Norte 8 Sudoeste 0 1005.8 0.5 87
2019-06-18 07:00:00 16.3 4 Oeste 7 Sudoeste 0 1005.6 0.1 94
2019-06-18 06:00:00 16.7 2 Sudoeste 7 Oeste 0 1005.3 -0.3 94
2019-06-18 05:00:00 16.8 0 Calma 6 Noroeste 0 1005.3 -0.5 93
2019-06-18 04:00:00 17 3 Oeste 7 Sudoeste 0 1005.5 -0.5 89
2019-06-18 03:00:00 17.3 3 Oeste 5 Noroeste 0 1005.6 -0.3 92
2019-06-18 02:00:00 17.3 4 Noroeste 5 Noroeste 0 1005.8 0.3 91
2019-06-18 01:00:00 17.8 2 Noroeste 8 Sudoeste 0 1006 0.8 90
2019-06-18 00:00:00 18.7 6 Sudoeste 11 Sur 0 1005.9 0.7 88
2019-06-17 23:00:00 19 8 Sudoeste 14 Sur 0 1005.5 0.3 86
2019-06-17 22:00:00 19.3 11 Sur 15 Sur 0 1005.2 -0.2 87
2019-06-17 21:00:00 19.7 9 Sur 15 Sur 0 1005.2 -0.5 84
2019-06-17 20:00:00 20.7 10 Sudeste 17 Sur 0 1005.2 -0.8 79
2019-06-17 19:00:00 21.6 11 Sur 23 Sur 0 1005.4 -1.3 75
2019-06-17 18:00:00 21.5 12 Sur 21 Sur 0 1005.7 -1.4 76
2019-06-17 17:00:00 21.7 12 Sudeste 22 Sudeste 0 1006 -1.9 73
2019-06-17 16:00:00 21.4 12 Sudeste 20 Sur 0 1006.7 -1.4 76
2019-06-17 15:00:00 21 12 Sudeste 17 Sur 0 1007.1 -1 76
2019-06-17 14:00:00 20.7 10 Nordeste 16 Este 0 1007.9 -0.1 77
2019-06-17 13:00:00 21.7 8 Este 17 Nordeste 0 1008.1 0.1 71
2019-06-17 12:00:00 20.5 8 Nordeste 15 Nordeste 0 1008.1 0.1 76
2019-06-17 11:00:00 19.6 8 Nordeste 15 Norte 0 1008 0.3 81
2019-06-17 10:00:00 19.2 7 Norte 15 Norte 0 1008 0.5 83
2019-06-17 09:00:00 19.8 6 Sur 11 Sur 0 1008 0.5 79
2019-06-17 08:00:00 18 3 Sudoeste 8 Sur 0 1007.7 0 87
2019-06-17 07:00:00 16 3 Sudoeste 6 Sudoeste 0 1007.5 -0.5 93
2019-06-17 06:00:00 16.3 4 Sudoeste 7 Oeste 0 1007.5 -0.9 92
2019-06-17 05:00:00 16.6 6 Sudoeste 8 Oeste 0 1007.7 -0.9 91
2019-06-17 04:00:00 16.9 3 Sur 8 Oeste 0 1008 -0.9 94
2019-06-17 03:00:00 16.9 5 Oeste 6 Norte 0 1008.4 -0.7 93
2019-06-17 02:00:00 17.3 3 Norte 6 Nordeste 0 1008.6 -0.4 94
2019-06-17 01:00:00 16.6 4 Noroeste 6 Norte 0 1008.9 0.6 90
2019-06-17 00:00:00 17.6 4 Sudoeste 9 Sur 0 1009.1 1 87
2019-06-16 23:00:00 17.8 3 Noroeste 8 Sudeste 0 1009 1 86
2019-06-16 22:00:00 19 5 Sudeste 11 Sur 0 1008.3 0.4 79
2019-06-16 21:00:00 19.8 7 Sur 15 Sur 0 1008.1 0.1 73
2019-06-16 20:00:00 20.7 8 Sur 15 Sur 0 1008 -0.2 70
2019-06-16 19:00:00 22 9 Sudeste 13 Sudeste 0 1007.9 -0.1 58
2019-06-16 18:00:00 22.1 8 Sudeste 14 Sudeste 0 1008 -0.2 58
2019-06-16 17:00:00 23 9 Sudeste 16 Sudeste 0 1008.2 -0.3 54
2019-06-16 16:00:00 22.9 11 Sudeste 15 Sudeste 0 1008 -0.6 47
2019-06-16 15:00:00 22.3 9 Nordeste 14 Norte 0 1008.2 -0.1 67
2019-06-16 14:00:00 22.8 9 Sudeste 17 Sudeste 0 1008.5 0.3 48
2019-06-16 13:00:00 20.4 4 Este 12 Sudeste 0 1008.6 0.7 70
2019-06-16 12:00:00 19.3 6 Nordeste 10 Este 0 1008.3 0.9 83
2019-06-16 11:00:00 18.4 8 Nordeste 15 Norte 0 1008.2 1.7 84
2019-06-16 10:00:00 17.9 8 Nordeste 16 Nordeste 0 1007.9 1.6 85
2019-06-16 09:00:00 19.3 4 Este 8 Este 0 1007.4 1.6 65
2019-06-16 08:00:00 17.7 3 Norte 8 Sudoeste 0 1006.5 0.9 65
2019-06-16 07:00:00 17.4 4 Sudoeste 9 Oeste 0 1006.3 0.7 66
2019-06-16 06:00:00 17.4 0 Calma 8 Norte 0 1005.8 0 66
2019-06-16 05:00:00 17.1 4 Noroeste 8 Noroeste 0 1005.6 -0.4 63
2019-06-16 04:00:00 18.1 3 Este 5 Noroeste 0 1005.6 -0.9 61
2019-06-16 03:00:00 18.6 3 Noroeste 7 Sur 0 1005.8 -1 51
2019-06-16 02:00:00 19.4 4 Sur 6 Oeste 0 1006 -0.8 49
2019-06-16 01:00:00 19.6 3 Oeste 7 Sudoeste 0 1006.5 0.3 48
2019-06-16 00:00:00 20.1 4 Sur 9 Sudoeste 0 1006.8 0.8 49
2019-06-15 23:00:00 20.4 4 Oeste 13 Sudoeste 0 1006.8 1.2 46
2019-06-15 22:00:00 21.9 6 Sudoeste 13 Oeste 0 1006.2 0.3 41
2019-06-15 21:00:00 24 9 Sudoeste 16 Oeste 0 1006 -0.5 33
2019-06-15 20:00:00 26.4 4 Sur 19 Oeste 0 1005.6 -1 31
2019-06-15 19:00:00 26.9 8 Oeste 26 Sudoeste 0 1005.9 -1.3 30
2019-06-15 18:00:00 27.3 9 Sudoeste 23 Sudoeste 0 1006.5 -1.1 32
2019-06-15 17:00:00 27.6 7 Oeste 25 Oeste 0 1006.6 -1.4 31
2019-06-15 16:00:00 27.7 7 Oeste 23 Sudoeste 0 1007.2 -1.3 31
2019-06-15 15:00:00 27.2 9 Noroeste 24 Noroeste 0 1007.6 -1.1 32
2019-06-15 14:00:00 26.5 9 Oeste 24 Norte 0 1008 -0.5 29
2019-06-15 13:00:00 25.2 15 Noroeste 36 Oeste 0 1008.5 0.3 31
2019-06-15 12:00:00 24.2 14 Oeste 44 Noroeste 0 1008.7 0.4 33
2019-06-15 11:00:00 23.3 16 Noroeste 34 Noroeste 0 1008.5 0.3 36
2019-06-15 10:00:00 22.4 18 Noroeste 40 Noroeste 0 1008.2 0.2 39
2019-06-15 09:00:00 20.4 9 Oeste 24 Oeste 0 1008.3 0.5 49
2019-06-15 08:00:00 18.3 12 Oeste 32 Oeste 0 1008.2 0.3 54
2019-06-15 07:00:00 16.9 11 Oeste 33 Oeste 0 1008 -0.1 62
2019-06-15 06:00:00 16.8 12 Oeste 36 Noroeste 0 1007.8 -0.9 72
2019-06-15 05:00:00 16.8 13 Oeste 31 Oeste 0 1007.9 -1 74
2019-06-15 04:00:00 16.6 11 Oeste 25 Oeste 0 1008.1 -1.3 71
2019-06-15 03:00:00 16.6 9 Oeste 19 Oeste 0 1008.7 -0.6 69
2019-06-15 02:00:00 16.5 5 Oeste 18 Norte 0 1008.9 0 67
2019-06-15 01:00:00 17.1 9 Oeste 34 Noroeste 0 1009.4 0.9 62
2019-06-15 00:00:00 17.1 5 Sudoeste 15 Noroeste 0 1009.3 1.3 63
2019-06-14 23:00:00 17.6 6 Sudoeste 28 Noroeste 0 1008.9 1.1 59
2019-06-14 22:00:00 18 8 Nordeste 27 Sudoeste 0 1008.5 0.9 52
2019-06-14 21:00:00 18.3 7 Oeste 29 Noroeste 0 1008 0 49
2019-06-14 20:00:00 19.5 10 Oeste 26 Oeste 0 1007.8 -0.2 50
2019-06-14 19:00:00 20.9 10 Noroeste 27 Noroeste 0 1007.6 -0.5 44
2019-06-14 18:00:00 20.9 8 Noroeste 33 Oeste 0 1008 0.1 45
2019-06-14 17:00:00 20.8 20 Noroeste 47 Noroeste 0 1008 -0.3 44
2019-06-14 16:00:00 21.3 13 Noroeste 38 Noroeste 0 1008.1 -0.2 45
2019-06-14 15:00:00 21.1 15 Noroeste 35 Noroeste 0 1007.9 0 44
2019-06-14 14:00:00 21.5 10 Noroeste 50 Oeste 0 1008.3 1 44
2019-06-14 13:00:00 20.4 15 Oeste 40 Oeste 0 1008.3 1.5 49
2019-06-14 12:00:00 20.3 14 Oeste 44 Oeste 0 1007.9 1.9 50
2019-06-14 11:00:00 19.3 12 Sudoeste 39 Noroeste 0 1007.3 1.8 53
2019-06-14 10:00:00 18.8 12 Sudoeste 34 Oeste 0 1006.8 1.7 59
2019-06-14 09:00:00 17.5 13 Sudoeste 48 Sur 0 1006 1.7 65
2019-06-14 08:00:00 17.1 11 Sudoeste 35 Oeste 0 1005.5 2 63
2019-06-14 07:00:00 16.4 10 Sudoeste 28 Sudoeste 0 1005.1 1.9 64
2019-06-14 06:00:00 16.6 13 Sudoeste 35 Oeste 0 1004.3 0.8 67
2019-06-14 05:00:00 17.1 11 Sudoeste 33 Sudoeste 0 1003.5 -0.1 70
2019-06-14 04:00:00 18 10 Sudoeste 34 Oeste 0 1003.2 -0.8 74
2019-06-14 03:00:00 18.5 10 Sudoeste 24 Sudoeste 0 1003.5 -0.2 75
2019-06-14 02:00:00 19.1 8 Oeste 27 Oeste 0 1003.6 0.7 66
2019-06-14 01:00:00 19.3 11 Oeste 34 Oeste 0 1004 2.8 58
2019-06-14 00:00:00 19.2 13 Oeste 31 Noroeste 0 1003.7 2.9 66
2019-06-13 23:00:00 20 5 Sudeste 9 Sur 0 1002.9 2.7 86
2019-06-13 22:00:00 20 6 Sur 16 Sur 0 1001.2 1.1 85
2019-06-13 21:00:00 20.7 9 Sur 15 Sur 0 1000.8 0.8 81
2019-06-13 20:00:00 20.6 8 Sur 15 Sudeste 0 1000.2 -0.1 81
2019-06-13 19:00:00 21.1 10 Sudeste 21 Sur 0 1000.1 -0.5 78
2019-06-13 18:00:00 21.9 12 Sudeste 26 Este 0 1000 -0.5 74
2019-06-13 17:00:00 22.2 18 Este 29 Este 0 1000.3 -0.5 73
2019-06-13 16:00:00 22.4 18 Este 26 Este 0 1000.6 -0.1 72
2019-06-13 15:00:00 21 11 Nordeste 25 Nordeste 0 1000.5 -0.3 81
2019-06-13 14:00:00 22.4 13 Este 29 Este 0 1000.8 0.3 75
2019-06-13 13:00:00 21.8 19 Este 34 Sudeste 0 1000.7 0.2 78
2019-06-13 12:00:00 21.8 18 Sudeste 31 Sudeste 0 1000.8 0.6 79
2019-06-13 11:00:00 21 19 Este 30 Este 0 1000.5 0.5 82
2019-06-13 10:00:00 20.7 16 Este 27 Este 0 1000.5 0.6 83
2019-06-13 09:00:00 18.8 13 Nordeste 29 Este 0 1000.2 0.3 92
2019-06-13 08:00:00 18.5 14 Este 26 Este 0 1000 -0.1 92
2019-06-13 07:00:00 18.4 14 Este 22 Este 0 999.9 -0.6 93
2019-06-13 06:00:00 18.3 12 Este 22 Este 0 999.9 -0.9 93
2019-06-13 05:00:00 18.2 14 Este 22 Este 0 1000.1 -1.2 94
2019-06-13 04:00:00 18.5 10 Este 26 Este 0 1000.5 -1.1 91
2019-06-13 03:00:00 18.6 15 Este 27 Este 0 1000.8 -0.9 90
2019-06-13 02:00:00 18.6 16 Este 26 Este 0 1001.3 -0.3 92
2019-06-13 01:00:00 18.8 13 Sudeste 21 Sudeste 0 1001.6 0.5 90
2019-06-13 00:00:00 18.8 13 Este 25 Este 0 1001.7 0.8 88
2019-06-12 23:00:00 18.9 15 Sudeste 23 Sudeste 0 1001.6 1 87
2019-06-12 22:00:00 19 14 Sudeste 27 Este 0 1001.1 0.4 87
2019-06-12 21:00:00 19.1 17 Este 27 Este 0 1000.9 -0.3 87
2019-06-12 20:00:00 19.6 17 Este 27 Este 0 1000.6 -1.2 85
2019-06-12 19:00:00 20.7 16 Este 29 Este 0 1000.7 -1.3 79
2019-06-12 18:00:00 21.4 18 Sudeste 30 Este 0 1001.2 -1.2 76
2019-06-12 17:00:00 21.3 18 Este 31 Este 0 1001.8 -1 76
2019-06-12 16:00:00 20.7 16 Este 32 Nordeste 0 1002 -1 76
2019-06-12 15:00:00 20.9 19 Este 39 Sudeste 0 1002.4 -0.7 72
2019-06-12 14:00:00 21.2 23 Este 38 Este 0 1002.8 -0.2 72
2019-06-12 13:00:00 20.1 15 Este 30 Este 0 1003 0.4 81
2019-06-12 12:00:00 18.7 15 Nordeste 24 Nordeste 0 1003.1 0.8 88
2019-06-12 11:00:00 18.3 14 Nordeste 29 Norte 0 1003 1.3 91
2019-06-12 10:00:00 17.7 13 Nordeste 28 Norte 0 1002.6 1.4 93
2019-06-12 09:00:00 18 13 Norte 29 Nordeste 0 1002.3 1.6 94
2019-06-12 08:00:00 17.8 13 Norte 28 Norte 0 1001.7 1.8 93
2019-06-12 07:00:00 17.7 14 Norte 32 Norte 0 1001.2 1.7 93
2019-06-12 06:00:00 17.5 21 Norte 66 Noroeste 0 1000.7 1.2 90
2019-06-12 05:00:00 20.1 8 Norte 22 Noroeste 0 999.9 0.1 53
2019-06-12 04:00:00 20.3 4 Sudoeste 13 Sur 0 999.5 -0.6 52
2019-06-12 03:00:00 20.8 6 Oeste 23 Noroeste 0 999.5 -0.7 49
2019-06-12 02:00:00 20.8 9 Noroeste 24 Oeste 0 999.8 -0.5 51
2019-06-12 01:00:00 20.5 16 Noroeste 41 Noroeste 0 1000.1 0 51
2019-06-12 00:00:00 19.6 17 Oeste 39 Oeste 0 1000.2 0 64
2019-06-11 23:00:00 19.7 17 Oeste 34 Oeste 0 1000.3 0.2 63
2019-06-11 22:00:00 20.7 7 Oeste 18 Oeste 0 1000.1 -0.2 53
2019-06-11 21:00:00 21.2 8 Oeste 22 Sur 0 1000.2 -0.3 47
2019-06-11 20:00:00 22.1 10 Oeste 44 Noroeste 0 1000.1 -0.6 47
2019-06-11 19:00:00 22.7 12 Noroeste 44 Oeste 0 1000.3 -0.2 47
2019-06-11 18:00:00 23.1 13 Oeste 49 Noroeste 0 1000.5 -0.6 51
2019-06-11 17:00:00 22.4 19 Oeste 59 Oeste 0 1000.7 -0.9 52
2019-06-11 16:00:00 22.2 22 Oeste 53 Oeste 0 1000.5 -1.7 53
2019-06-11 15:00:00 23 12 Oeste 40 Sudoeste 0 1001.1 -1.2 53
2019-06-11 14:00:00 22.6 10 Sudoeste 35 Oeste 0 1001.6 -0.9 53
2019-06-11 13:00:00 22.7 15 Sudoeste 35 Oeste 0 1002.2 -0.3 52
2019-06-11 12:00:00 21.9 15 Oeste 45 Oeste 0 1002.3 0 59
2019-06-11 11:00:00 21.1 16 Sudoeste 42 Oeste 0 1002.5 0.5 60
2019-06-11 10:00:00 20.8 14 Sudoeste 33 Noroeste 0 1002.5 1.4 60
2019-06-11 09:00:00 20.1 14 Sudoeste 28 Oeste 0 1002.3 1.3 62
2019-06-11 08:00:00 19.9 5 Sudoeste 41 Noroeste 0 1002 0.8 57
2019-06-11 07:00:00 18.6 22 Oeste 50 Oeste 0 1001.1 -0.4 64
2019-06-11 06:00:00 19 24 Oeste 47 Oeste 0 1001 -1.3 63
2019-06-11 05:00:00 19.4 21 Oeste 50 Oeste 0 1001.2 -1.9 62
2019-06-11 04:00:00 20.2 20 Oeste 59 Oeste 0 1001.5 -2.3 56
2019-06-11 03:00:00 20.2 22 Oeste 53 Oeste 0 1002.3 -2.1 42
2019-06-11 02:00:00 18.9 18 Oeste 42 Oeste 0 1003.1 -1.6 49
2019-06-11 01:00:00 18.3 17 Oeste 44 Noroeste 0 1003.8 -0.5 66
2019-06-11 00:00:00 18.6 15 Oeste 43 Noroeste 0 1004.4 0.1 65
2019-06-10 23:00:00 18.7 14 Noroeste 47 Noroeste 0 1004.7 0.4 65
2019-06-10 22:00:00 18.9 14 Oeste 40 Noroeste 0 1004.3 -0.6 60
2019-06-10 21:00:00 19.7 15 Oeste 41 Noroeste 0 1004.3 -0.9 57
2019-06-10 20:00:00 20.9 15 Oeste 38 Oeste 0 1004.3 -1.3 54
2019-06-10 19:00:00 22.1 14 Oeste 42 Oeste 0 1004.9 -1.6 49
2019-06-10 18:00:00 23 14 Oeste 41 Oeste 0 1005.2 -2.1 48
2019-06-10 17:00:00 23.3 16 Oeste 41 Sudoeste 0 1005.6 -2.3 46
2019-06-10 16:00:00 23.3 15 Oeste 36 Noroeste 0 1006.5 -1.8 48
2019-06-10 15:00:00 23.3 13 Oeste 41 Oeste 0 1007.3 -1.1 50
2019-06-10 14:00:00 22.8 14 Oeste 36 Sudoeste 0 1007.9 -0.6 54
2019-06-10 13:00:00 22.4 14 Oeste 37 Sudoeste 0 1008.3 0.1 57
2019-06-10 12:00:00 21.4 12 Oeste 33 Sudoeste 0 1008.4 0.5 63
2019-06-10 11:00:00 20 9 Oeste 27 Sudoeste 0 1008.5 0.9 69
2019-06-10 10:00:00 19.9 13 Oeste 34 Sudoeste 0 1008.2 0.8 66
2019-06-10 09:00:00 20 10 Oeste 36 Oeste 0 1007.9 0.7 67
2019-06-10 08:00:00 18 14 Oeste 39 Sudoeste 0 1007.6 0.3 76
2019-06-10 07:00:00 17.6 15 Oeste 41 Oeste 0 1007.4 0.4 77
2019-06-10 06:00:00 17.7 15 Oeste 43 Oeste 0 1007.2 0 78
2019-06-10 05:00:00 17.9 18 Oeste 57 Oeste 0 1007.3 -0.2 78
2019-06-10 04:00:00 18.1 19 Oeste 54 Oeste 0 1007 -1.1 76
2019-06-10 03:00:00 18.6 27 Noroeste 55 Noroeste 0 1007.2 -1.8 70
2019-06-10 02:00:00 18.8 26 Oeste 52 Oeste 0 1007.5 -0.7 69
2019-06-10 01:00:00 19.1 21 Oeste 47 Noroeste 0 1008.1 0.2 59
2019-06-10 00:00:00 18.4 12 Sudoeste 32 Sudoeste 0 1009 1.4 56
2019-06-09 23:00:00 18.4 20 Oeste 44 Oeste 0 1008.2 0.5 63
2019-06-09 22:00:00 19.2 13 Oeste 45 Oeste 0 1007.9 0.4 49
2019-06-09 21:00:00 20 17 Oeste 42 Oeste 0 1007.6 -0.2 40
2019-06-09 20:00:00 21.7 13 Sudoeste 27 Sudoeste 0 1007.7 -0.2 39
2019-06-09 19:00:00 22.9 12 Sudoeste 28 Sudoeste 0 1007.5 -0.7 36
2019-06-09 18:00:00 24.3 12 Sudoeste 32 Noroeste 0 1007.8 -0.5 35
2019-06-09 17:00:00 24.4 15 Oeste 39 Sudoeste 0 1007.9 -0.7 28
2019-06-09 16:00:00 23.9 13 Sudoeste 31 Sudoeste 0 1008.2 -0.7 40
2019-06-09 15:00:00 24.2 9 Oeste 30 Sur 0 1008.3 -0.5 50
2019-06-09 14:00:00 23.7 10 Oeste 28 Norte 0 1008.6 -0.2 55
2019-06-09 13:00:00 21.9 16 Noroeste 38 Noroeste 0 1008.9 0.3 67
2019-06-09 12:00:00 22.4 12 Norte 25 Noroeste 0 1008.8 0.3 63
2019-06-09 11:00:00 22.2 13 Noroeste 25 Noroeste 0 1008.8 0.4 63
2019-06-09 10:00:00 22 8 Oeste 20 Oeste 0 1008.6 0.4 65
2019-06-09 09:00:00 21.5 4 Oeste 14 Sudoeste 0 1008.5 0.5 71
2019-06-09 08:00:00 18.6 3 Norte 8 Norte 0 1008.4 0.5 92
2019-06-09 07:00:00 18.7 3 Nordeste 8 Noroeste 0 1008.2 0 95
2019-06-09 06:00:00 18.8 4 Norte 6 Norte 0 1008 -0.5 95
2019-06-09 05:00:00 18.6 4 Nordeste 8 Nordeste 0 1007.9 -0.9 94
2019-06-09 04:00:00 19 3 Nordeste 10 Este 0 1008.2 -0.8 92
2019-06-09 03:00:00 19 5 Nordeste 14 Este 0 1008.5 -0.7 93
2019-06-09 02:00:00 19.3 8 Este 18 Este 0 1008.8 -0.2 91
2019-06-09 01:00:00 19.4 9 Este 19 Este 0 1009 0.8 90
2019-06-09 00:00:00 19.4 12 Este 23 Este 0 1009.2 1.2 91
2019-06-08 23:00:00 19.5 9 Sudeste 17 Este 0 1009 1.5 91
2019-06-08 22:00:00 19.3 11 Este 16 Este 0 1008.2 0.5 90
2019-06-08 21:00:00 19.8 8 Sudeste 15 Sudeste 0 1008 0.4 87
2019-06-08 20:00:00 21 7 Sudeste 21 Este 0 1007.5 -0.2 81
2019-06-08 19:00:00 21.1 15 Sudeste 26 Sudeste 0 1007.7 0.3 78
2019-06-08 18:00:00 20.9 16 Este 24 Este 0 1007.6 -0.2 75
2019-06-08 17:00:00 20.8 16 Nordeste 28 Nordeste 0 1007.7 -0.4 79
2019-06-08 16:00:00 23.3 10 Sudeste 16 Sudeste 0 1007.4 -0.7 48
2019-06-08 15:00:00 22.6 12 Sudeste 17 Sudeste 0 1007.8 -0.2 64
2019-06-08 14:00:00 21.3 8 Norte 19 Norte 0 1008.1 0.6 75
2019-06-08 13:00:00 20.4 8 Nordeste 18 Norte 0 1008.1 0.7 77
2019-06-08 12:00:00 20.5 10 Nordeste 22 Nordeste 0 1008 1 78
2019-06-08 11:00:00 21.9 10 Nordeste 19 Noroeste 0 1007.5 1 60
2019-06-08 10:00:00 22.9 8 Noroeste 15 Noroeste 0 1007.4 1.3 53
2019-06-08 09:00:00 21.9 4 Sudeste 6 Este 0 1007 1.3 46
2019-06-08 08:00:00 19.1 5 Oeste 8 Oeste 0 1006.5 0.8 56
2019-06-08 07:00:00 18.1 6 Sur 8 Sur 0 1006.1 0.3 49
2019-06-08 06:00:00 18.4 8 Oeste 9 Oeste 0 1005.7 -0.3 47
2019-06-08 05:00:00 18.5 3 Sudoeste 5 Sudoeste 0 1005.7 -0.3 45
2019-06-08 04:00:00 18.9 3 Oeste 9 Oeste 0 1005.8 -0.5 43
2019-06-08 03:00:00 19.6 8 Oeste 11 Sudoeste 0 1006 -0.5 42
2019-06-08 02:00:00 20.5 6 Sur 12 Sudoeste 0 1006 0 40
2019-06-08 01:00:00 20.8 6 Sudoeste 13 Sudoeste 0 1006.3 0.8 40
2019-06-08 00:00:00 20.9 6 Sudoeste 21 Noroeste 0 1006.5 1.2 43
2019-06-07 23:00:00 20.6 7 Oeste 21 Noroeste 0 1006 0.7 38
2019-06-07 22:00:00 20.8 8 Oeste 22 Oeste 0 1005.5 0.1 38
2019-06-07 21:00:00 21.8 10 Oeste 22 Noroeste 0 1005.3 -0.5 39
2019-06-07 20:00:00 23.9 9 Oeste 27 Oeste 0 1005.3 -0.9 43
2019-06-07 19:00:00 24.8 9 Oeste 27 Oeste 0 1005.4 -1.1 43
2019-06-07 18:00:00 24.7 11 Sudoeste 27 Oeste 0 1005.8 -0.9 44
2019-06-07 17:00:00 25 12 Oeste 22 Oeste 0 1006.2 -0.6 42
2019-06-07 16:00:00 25 8 Oeste 26 Sudoeste 0 1006.5 -0.5 43
2019-06-07 15:00:00 24.6 10 Sudoeste 22 Sudoeste 0 1006.7 0 46
2019-06-07 14:00:00 23.8 12 Noroeste 34 Noroeste 0 1006.8 0.3 49
2019-06-07 13:00:00 23.3 7 Oeste 22 Oeste 0 1007 1 52
2019-06-07 12:00:00 21.7 10 Noroeste 26 Noroeste 0 1006.7 0.9 62
2019-06-07 11:00:00 20.5 14 Noroeste 31 Noroeste 0 1006.5 1.3 70
2019-06-07 10:00:00 20.1 6 Sudoeste 26 Sudoeste 0 1006 1.4 70
2019-06-07 09:00:00 19.3 6 Sudoeste 28 Oeste 0 1005.8 1.5 71
2019-06-07 08:00:00 19.2 6 Oeste 31 Noroeste 0 1005.2 1 70
2019-06-07 07:00:00 17.4 6 Oeste 16 Este 0 1004.6 1.1 76
2019-06-07 06:00:00 17.5 6 Sur 21 Sudeste 0 1004.3 0.7 74
2019-06-07 05:00:00 17.5 13 Sudeste 39 Oeste 0 1004.2 0.1 74
2019-06-07 04:00:00 17.2 16 Oeste 39 Noroeste 0 1003.5 -1 75
2019-06-07 03:00:00 17.3 18 Oeste 41 Oeste 0 1003.6 -1 74
2019-06-07 02:00:00 17.5 22 Oeste 47 Oeste 0 1004.1 0.1 72
2019-06-07 01:00:00 17.4 13 Oeste 29 Oeste 0 1004.5 1 71
2019-06-07 00:00:00 17.5 8 Oeste 23 Oeste 0 1004.6 1.6 69
2019-06-06 23:00:00 17.7 10 Oeste 29 Oeste 0 1004 2 63
2019-06-06 22:00:00 18 12 Sudoeste 24 Sudoeste 0 1003.5 1.8 55
2019-06-06 21:00:00 19.1 5 Sudoeste 36 Oeste 0 1003 1 39
2019-06-06 20:00:00 21.7 15 Oeste 53 Noroeste 0 1002 -0.3 28
2019-06-06 19:00:00 21.7 21 Oeste 49 Noroeste 0 1001.7 -1.3 35
2019-06-06 18:00:00 23.2 16 Oeste 38 Oeste 0 1002 -1.5 36
2019-06-06 17:00:00 25 13 Oeste 31 Oeste 0 1002.3 -1.6 34
2019-06-06 16:00:00 25.2 10 Oeste 26 Oeste 0 1003 -0.9 32
2019-06-06 15:00:00 25 14 Noroeste 27 Noroeste 0 1003.5 -0.4 33
2019-06-06 14:00:00 24.8 11 Oeste 26 Oeste 0 1003.9 0 31
2019-06-06 13:00:00 24.5 9 Oeste 27 Oeste 0 1003.9 0.2 32
2019-06-06 12:00:00 23.1 14 Oeste 26 Sudoeste 0 1003.9 0.3 38
2019-06-06 11:00:00 22.5 11 Sudoeste 24 Sudoeste 0 1003.9 0.3 41
2019-06-06 10:00:00 22.5 10 Oeste 22 Oeste 0 1003.7 0.1 40
2019-06-06 09:00:00 21.1 8 Oeste 21 Noroeste 0 1003.6 0.3 43
2019-06-06 08:00:00 19.2 10 Oeste 26 Noroeste 0 1003.6 0.3 45
2019-06-06 07:00:00 17.5 12 Oeste 32 Noroeste 0 1003.6 0 62
2019-06-06 06:00:00 17.6 11 Oeste 34 Oeste 0 1003.3 -1.1 66
2019-06-06 05:00:00 17.7 12 Oeste 38 Noroeste 0 1003.3 -1.5 67
2019-06-06 04:00:00 18 12 Oeste 37 Oeste 0 1003.6 -1.6 61
2019-06-06 03:00:00 18.1 10 Oeste 32 Oeste 0 1004.4 -1 59
2019-06-06 02:00:00 18.3 11 Oeste 32 Oeste 0 1004.8 -0.2 52
2019-06-06 01:00:00 18.1 12 Oeste 31 Noroeste 0 1005.2 0.2 58
2019-06-06 00:00:00 17.9 15 Oeste 43 Noroeste 0 1005.4 0.6 64
2019-06-05 23:00:00 17.9 19 Oeste 42 Oeste 0 1005 0.5 61
2019-06-05 22:00:00 17.8 12 Oeste 36 Noroeste 0 1005 0.3 65
2019-06-05 21:00:00 18.5 15 Noroeste 38 Noroeste 0 1004.8 0 62
2019-06-05 20:00:00 19.4 18 Oeste 42 Oeste 0 1004.5 -0.5 51
2019-06-05 19:00:00 20.8 12 Oeste 37 Oeste 0 1004.7 -0.8 48
2019-06-05 18:00:00 20.8 18 Oeste 43 Oeste 0 1004.8 -1.1 47
2019-06-05 17:00:00 21.3 17 Oeste 39 Noroeste 0 1005 -1.3 47
2019-06-05 16:00:00 21.7 14 Oeste 45 Noroeste 0 1005.5 -0.9 49
2019-06-05 15:00:00 21.2 17 Oeste 43 Oeste 0 1005.9 -0.6 52
2019-06-05 14:00:00 22.1 17 Oeste 33 Oeste 0 1006.3 -0.1 43
2019-06-05 13:00:00 22 17 Noroeste 34 Noroeste 0 1006.4 0.2 40
2019-06-05 12:00:00 21 12 Noroeste 37 Noroeste 0 1006.5 0.7 42
2019-06-05 11:00:00 19.9 15 Noroeste 38 Oeste 0 1006.4 1 46
2019-06-05 10:00:00 19.7 18 Noroeste 46 Noroeste 0 1006.2 1.4 38
2019-06-05 09:00:00 18.8 8 Oeste 23 Sudoeste 0 1005.8 1.6 46
2019-06-05 08:00:00 17.5 9 Oeste 36 Noroeste 0 1005.4 1.4 54
2019-06-05 07:00:00 17.2 9 Noroeste 39 Noroeste 0 1004.8 1 62
2019-06-05 06:00:00 17.6 4 Noroeste 27 Noroeste 0 1004.2 0 70
2019-06-05 05:00:00 18.4 12 Oeste 37 Noroeste 0 1004 -0.3 67
2019-06-05 04:00:00 18.8 13 Oeste 39 Oeste 0 1003.8 -0.3 73
2019-06-05 03:00:00 19.2 18 Oeste 41 Oeste 0 1004.2 0.3 74
2019-06-05 02:00:00 19.4 14 Oeste 37 Oeste 0 1004.3 1.1 76
2019-06-05 01:00:00 19.6 14 Oeste 37 Sudoeste 0 1004.1 1.8 77
2019-06-05 00:00:00 19.6 12 Sudoeste 28 Sudoeste 0 1003.9 1.9 77
2019-06-04 23:00:00 19.7 8 Sur 24 Sur 0 1003.2 1.3 73
2019-06-04 22:00:00 19.5 10 Sudeste 20 Este 0 1002.3 0.5 74
2019-06-04 21:00:00 20.1 7 Sur 35 Oeste 0 1002 0.2 71
2019-06-04 20:00:00 21.4 7 Oeste 31 Oeste 0 1001.9 -0.2 62
2019-06-04 19:00:00 22.6 13 Oeste 32 Oeste 0 1001.8 -0.7 64
2019-06-04 18:00:00 24.6 16 Oeste 34 Oeste 0 1001.8 -1.1 54
2019-06-04 17:00:00 26.6 15 Noroeste 37 Noroeste 0 1002.1 -1.8 46
2019-06-04 16:00:00 27.4 10 Sudoeste 27 Sudoeste 0 1002.5 -1.4 44
2019-06-04 15:00:00 27.7 13 Sudoeste 26 Sudoeste 0 1002.9 -1.2 41
2019-06-04 14:00:00 26.9 14 Sudoeste 34 Oeste 0 1003.9 -0.1 39
2019-06-04 13:00:00 26.7 13 Sudoeste 29 Oeste 0 1003.9 -0.1 38
2019-06-04 12:00:00 24.6 9 Norte 24 Sudoeste 0 1004.1 0.4 57
2019-06-04 11:00:00 22.9 8 Sur 10 Sur 0 1004 0.5 64
2019-06-04 10:00:00 22 5 Este 9 Norte -- 1004 0.6 62
2019-06-04 09:00:00 20.6 2 Este 7 Sur 0 1003.7 0.4 64
2019-06-04 08:00:00 17.6 3 Sudoeste 10 Sur 0 1003.5 -0.1 83
2019-06-04 07:00:00 15.7 3 Sur 7 Oeste 0 1003.4 -0.6 90
2019-06-04 06:00:00 15.7 2 Norte 13 Sur 0 1003.3 -1.7 79
2019-06-04 05:00:00 16.3 12 Sur 14 Sur 0 1003.6 -1.7 85
2019-06-04 04:00:00 16.6 8 Sudoeste 14 Sudoeste 0 1004 -2 94
2019-06-04 03:00:00 16.3 2 Oeste 8 Noroeste 0 1005 -1.2 96
2019-06-04 02:00:00 16.5 0 Calma 5 Oeste 0 1005.3 -0.6 95
2019-06-04 01:00:00 16.9 3 Noroeste 7 Norte 0 1006 0.6 93
2019-06-04 00:00:00 17.9 4 Sudoeste 12 Sur 0 1006.2 0.9 90
2019-06-03 23:00:00 18.6 8 Sur 15 Sur 0 1005.9 0.4 89
2019-06-03 22:00:00 18.8 10 Sur 18 Sur 0 1005.4 -0.4 88
2019-06-03 21:00:00 19.6 10 Sur 18 Sur 0 1005.3 -0.9 83
2019-06-03 20:00:00 20.2 12 Sur 22 Sur 0 1005.5 -1.1 80
2019-06-03 19:00:00 20.5 13 Sur 21 Sur 0 1005.8 -1.3 79
2019-06-03 18:00:00 21.6 11 Sur 18 Sur 0 1006.2 -1.2 72
2019-06-03 17:00:00 21.5 9 Sudeste 17 Sudeste 0 1006.6 -1.4 73
2019-06-03 16:00:00 21.5 12 Sudeste 17 Sudeste 0 1007.1 -1.1 72
2019-06-03 15:00:00 21.7 11 Sudeste 18 Sudeste 0 1007.4 -0.8 70
2019-06-03 14:00:00 21.5 13 Sudeste 19 Sudeste 0 1008 0 71
2019-06-03 13:00:00 21.3 10 Sudeste 19 Sur 0 1008.2 0.2 73
2019-06-03 12:00:00 21 11 Sudeste 19 Sudeste 0 1008.2 0.7 72
2019-06-03 11:00:00 20.5 12 Sudeste 21 Sudeste 0 1008 0.6 75
2019-06-03 10:00:00 20.1 11 Sudeste 22 Sudeste 0 1008 0.9 76
2019-06-03 09:00:00 19.3 13 Sudeste 19 Sudeste 0 1007.5 0.4 79
2019-06-03 08:00:00 17.9 11 Sur 18 Sur 0 1007.4 0.2 86
2019-06-03 07:00:00 17.9 10 Sudeste 19 Sudeste 0 1007.1 -0.4 87
2019-06-03 06:00:00 17.9 9 Sudeste 16 Sudeste 0 1007.1 -0.8 88
2019-06-03 05:00:00 18 10 Sudeste 18 Este 0 1007.2 -1.3 87
2019-06-03 04:00:00 18 10 Sudeste 19 Sur 0 1007.5 -1.4 90
2019-06-03 03:00:00 18 10 Sudeste 19 Sudeste 0 1007.9 -1.1 93
2019-06-03 02:00:00 18 10 Sudeste 17 Sur 0 1008.5 -0.1 95
2019-06-03 01:00:00 18.1 10 Sudeste 20 Sudeste 0 1008.9 0.9 94
2019-06-03 00:00:00 18.1 11 Sudeste 19 Este 0 1009 1.5 92
2019-06-02 23:00:00 18.3 10 Sudeste 18 Sudeste 0 1008.6 1.4 91
2019-06-02 22:00:00 18.5 10 Sudeste 17 Sudeste 0 1008 0.6 92
2019-06-02 21:00:00 18.8 11 Sudeste 21 Sudeste 0 1007.5 -0.3 90
2019-06-02 20:00:00 19.7 13 Sudeste 22 Sudeste 0 1007.2 -0.8 85
2019-06-02 19:00:00 20.7 13 Sudeste 23 Sudeste 0 1007.4 -1 80
2019-06-02 18:00:00 20.8 14 Sudeste 24 Sudeste 0 1007.8 -1 79
2019-06-02 17:00:00 20.7 15 Sudeste 24 Sudeste 0 1008 -1.2 79
2019-06-02 16:00:00 20.5 16 Sudeste 25 Sudeste 0 1008.4 -1.2 80
2019-06-02 15:00:00 21 15 Sudeste 24 Sudeste 0 1008.8 -0.7 75
2019-06-02 14:00:00 20.5 16 Sudeste 26 Sudeste 0 1009.2 -0.2 78
2019-06-02 13:00:00 20.5 17 Sudeste 28 Sudeste 0 1009.6 0.5 75
2019-06-02 12:00:00 20.5 16 Sudeste 26 Sudeste 0 1009.5 0.7 75
2019-06-02 11:00:00 20.1 13 Sudeste 27 Este 0 1009.4 0.7 81
2019-06-02 10:00:00 20.2 13 Sudeste 26 Sudeste 0 1009.1 0.6 78
2019-06-02 09:00:00 18.7 14 Este 23 Sudeste 0 1008.8 0.3 88
2019-06-02 08:00:00 17.6 11 Sudeste 21 Sudeste 0 1008.7 0.1 94
2019-06-02 07:00:00 17.2 13 Sudeste 23 Este 0 1008.5 -0.4 94
2019-06-02 06:00:00 17.3 11 Sudeste 22 Este 0 1008.5 -0.9 92
2019-06-02 05:00:00 17.4 13 Este 21 Este 0 1008.6 -1.1 90
2019-06-02 04:00:00 17.4 12 Sudeste 23 Este 0 1008.9 -0.9 92
2019-06-02 03:00:00 17.5 13 Este 22 Este 0 1009.4 -0.5 92
2019-06-02 02:00:00 17.7 12 Este 24 Este 0 1009.7 0.1 92
2019-06-02 01:00:00 17.8 14 Este 25 Sudeste 0 1009.8 0.9 92
2019-06-02 00:00:00 18.3 13 Este 24 Este 0 1009.9 1.4 92
2019-06-01 23:00:00 18.4 15 Este 25 Sudeste 0 1009.6 1.3 91
2019-06-01 22:00:00 18.5 14 Sudeste 27 Sudeste 0 1008.9 0.3 90
2019-06-01 21:00:00 19 15 Sudeste 25 Sudeste 0 1008.5 -0.3 86
2019-06-01 20:00:00 19.8 18 Sudeste 27 Sudeste 0 1008.3 -0.9 82
2019-06-01 19:00:00 20.7 15 Sudeste 29 Este 0 1008.6 -1 80
2019-06-01 18:00:00 21 16 Este 32 Este 0 1008.8 -1.2 77
2019-06-01 17:00:00 20.9 20 Este 32 Sudeste 0 1009.2 -1.3 78
2019-06-01 16:00:00 21.5 22 Sudeste 35 Este 0 1009.6 -1.1 75
2019-06-01 15:00:00 21.2 23 Este 34 Este 0 1010 -0.8 75
2019-06-01 14:00:00 21 23 Este 35 Este 0 1010.5 0 75
2019-06-01 13:00:00 21.8 19 Sudeste 33 Este 0 1010.7 0.4 73
2019-06-01 12:00:00 21 19 Este 35 Este 0 1010.8 0.8 74
2019-06-01 11:00:00 20.5 19 Este 34 Este 0 1010.5 0.7 74
2019-06-01 10:00:00 18.3 15 Sudeste 27 Sudeste 0 1010.3 0.8 87
2019-06-01 09:00:00 19 17 Este 27 Este 0 1010 0.7 83
2019-06-01 08:00:00 17.6 16 Sudeste 33 Este 0 1009.8 0.4 90
2019-06-01 07:00:00 17.5 13 Este 27 Este 0 1009.5 -0.2 92
2019-06-01 06:00:00 17.3 17 Este 26 Sudeste 0 1009.3 -0.7 91
2019-06-01 05:00:00 17.4 14 Este 28 Sudeste 0 1009.4 -1.1 88
2019-06-01 04:00:00 17.5 14 Este 27 Sudeste 0 1009.7 -1.2 88
2019-06-01 03:00:00 17.5 13 Este 24 Este 0 1010 -1 89
2019-06-01 02:00:00 17.7 12 Este 23 Este 0 1010.5 -0.1 88
2019-06-01 01:00:00 18.1 12 Sudeste 22 Sudeste 0 1010.9 0.9 88
2019-06-01 00:00:00 18.2 10 Sudeste 19 Sudeste 0 1011 1.4 88
2019-05-31 23:00:00 18.4 11 Sudeste 22 Sudeste 0 1010.6 1.1 86
2019-05-31 22:00:00 18.6 12 Sudeste 21 Sudeste 0 1010 0.3 84
2019-05-31 21:00:00 19 15 Sudeste 26 Sur 0 1009.6 -0.6 83
2019-05-31 20:00:00 19.9 14 Sudeste 33 Este 0 1009.5 -1 77
2019-05-31 19:00:00 20.6 16 Sudeste 32 Sudeste 0 1009.7 -1.2 75
2019-05-31 18:00:00 21.2 18 Este 35 Este 0 1010.2 -0.8 73
2019-05-31 17:00:00 21.1 19 Este 39 Este 0 1010.5 -0.9 74
2019-05-31 16:00:00 21 26 Este 44 Este 0 1010.9 -0.7 74
2019-05-31 15:00:00 21.5 24 Este 38 Sudeste 0 1011 -0.4 72
2019-05-31 14:00:00 21.4 23 Sudeste 37 Este 0 1011.4 0.1 72
2019-05-31 13:00:00 21.2 27 Este 45 Este 0 1011.6 0.4 71
2019-05-31 12:00:00 20.6 24 Este 42 Este 0 1011.4 0.4 74
2019-05-31 11:00:00 20.6 24 Este 44 Este 0 1011.3 0.5 74
2019-05-31 10:00:00 20.2 22 Este 37 Este 0 1011.2 0.7 76
2019-05-31 09:00:00 19.4 19 Este 31 Este 0 1011 0.8 81
2019-05-31 08:00:00 18.3 15 Este 30 Este 0 1010.8 0.3 86
2019-05-31 07:00:00 17.5 18 Este 31 Este 0 1010.5 -0.1 89
2019-05-31 06:00:00 17.5 16 Este 28 Este 0 1010.2 -1 90
2019-05-31 05:00:00 17.6 16 Este 32 Este 0 1010.5 -1.3 89
2019-05-31 04:00:00 17.8 20 Este 36 Este 0 1010.6 -1.4 86
2019-05-31 03:00:00 17.9 18 Este 30 Sudeste 0 1011.2 -1.3 86
2019-05-31 02:00:00 18.1 18 Sudeste 34 Este 0 1011.8 -0.4 84
2019-05-31 01:00:00 18.1 21 Sudeste 33 Este 0 1012 0.4 85
2019-05-31 00:00:00 18.1 21 Este 33 Este 0 1012.5 1.2 86
2019-05-30 23:00:00 18.3 18 Sudeste 35 Sudeste 0 1012.2 1.2 85
2019-05-30 22:00:00 18.4 17 Sudeste 34 Sudeste 0 1011.6 0.3 85
2019-05-30 21:00:00 18.8 15 Sudeste 33 Este 0 1011.3 -0.3 84
2019-05-30 20:00:00 19.6 19 Sudeste 37 Este 0 1011 -1 80
2019-05-30 19:00:00 20.5 21 Este 40 Sudeste 0 1011.3 -0.9 75
2019-05-30 18:00:00 20.9 24 Sudeste 40 Sudeste 0 1011.6 -0.7 71
2019-05-30 17:00:00 21.5 22 Sudeste 42 Este 0 1012 -0.6 68
2019-05-30 16:00:00 21 28 Este 48 Este 0 1012.2 -0.6 70
2019-05-30 15:00:00 21.3 27 Este 42 Este 0 1012.3 -0.3 70
2019-05-30 14:00:00 21.4 26 Este 46 Este 0 1012.6 0.2 69
2019-05-30 13:00:00 20.9 28 Este 45 Este 0 1012.8 0.6 73
2019-05-30 12:00:00 21 27 Este 50 Este 0 1012.6 0.8 73
2019-05-30 11:00:00 20.7 21 Sudeste 44 Sudeste 0 1012.4 1 75
2019-05-30 10:00:00 19.6 23 Este 37 Sudeste 0 1012.2 1.3 80
2019-05-30 09:00:00 19 21 Este 38 Sudeste 0 1011.8 1.3 83
2019-05-30 08:00:00 18.3 19 Sudeste 34 Este 0 1011.4 0.8 89
2019-05-30 07:00:00 18 15 Sudeste 33 Este 0 1010.9 0.3 87
2019-05-30 06:00:00 18.1 18 Sudeste 29 Este 0 1010.5 -0.2 84
2019-05-30 05:00:00 18.1 16 Este 33 Este 0 1010.6 -0.5 88
2019-05-30 04:00:00 18.1 17 Este 30 Sudeste 0 1010.6 -0.6 90
2019-05-30 03:00:00 18.4 15 Este 33 Sudeste 0 1010.7 -0.4 90
2019-05-30 02:00:00 18.5 17 Este 30 Este 0 1011.1 0.8 89
2019-05-30 01:00:00 18.7 15 Sudeste 28 Este 0 1011.2 1.9 89
2019-05-30 00:00:00 18.8 16 Sudeste 27 Este 0 1011.1 2.3 88
2019-05-29 23:00:00 19 14 Sudeste 24 Sudeste 0 1010.3 2.1 86
2019-05-29 22:00:00 19.1 14 Sudeste 26 Sudeste 0 1009.3 1.2 84
2019-05-29 21:00:00 19.5 15 Sudeste 32 Este 0 1008.8 0.5 82
2019-05-29 20:00:00 20.1 19 Este 32 Este 0 1008.2 -0.5 78
2019-05-29 19:00:00 21 19 Este 33 Este 0 1008.1 -0.8 76
2019-05-29 18:00:00 21.6 20 Este 33 Sudeste 0 1008.3 -0.7 74
2019-05-29 17:00:00 21.8 23 Este 38 Sudeste 0 1008.7 -0.6 74
2019-05-29 16:00:00 22.7 20 Este 37 Sudeste 0 1008.9 -0.3 69
2019-05-29 15:00:00 22.9 18 Este 39 Este 0 1009 0 69
2019-05-29 14:00:00 21.9 23 Este 38 Este 0 1009.3 0.4 73
2019-05-29 13:00:00 22.4 22 Este 39 Este 0 1009.2 0.7 73
2019-05-29 12:00:00 22.1 22 Este 38 Este 0 1009 1.1 75
2019-05-29 11:00:00 21.1 23 Este 34 Este 0 1008.9 1.7 81
2019-05-29 10:00:00 20.2 13 Este 23 Este 0 1008.5 1.9 88
2019-05-29 09:00:00 19.2 12 Este 22 Este 0 1007.9 1.7 94
2019-05-29 08:00:00 18.6 12 Este 24 Este 0 1007.2 1.7 97
2019-05-29 07:00:00 18.4 15 Nordeste 24 Este 0 1006.6 1.5 97
2019-05-29 06:00:00 18 12 Nordeste 24 Nordeste 0 1006.2 1.7 100
2019-05-29 05:00:00 18 8 Nordeste 19 Nordeste 0 1005.5 1.5 100
2019-05-29 04:00:00 18 9 Nordeste 21 Nordeste 0 1005.1 1.3 99
2019-05-29 03:00:00 18.4 9 Norte 18 Noroeste 0 1004.5 1 99
2019-05-29 02:00:00 18.4 9 Norte 17 Noroeste 0 1004 0.8 98
2019-05-29 01:00:00 18.6 9 Norte 17 Nordeste 0 1003.8 1.6 95
2019-05-29 00:00:00 19.2 2 Este 7 Nordeste 0 1003.5 1.5 81
2019-05-28 23:00:00 19.7 5 Norte 11 Norte 0 1003.2 1.3 80
2019-05-28 22:00:00 23.2 3 Oeste 8 Oeste 0 1002.2 0.3 55
2019-05-28 21:00:00 24.6 2 Oeste 9 Sur 0 1002 0 62
2019-05-28 20:00:00 25.9 6 Sur 10 Sur 0 1001.9 0 61
2019-05-28 19:00:00 26.1 8 Sur 14 Sur 0 1001.9 0 61
2019-05-28 18:00:00 26.7 12 Sur 15 Sur 0 1002 0.2 63
2019-05-28 17:00:00 27.8 12 Sur 18 Sur 0 1001.9 0.1 48
2019-05-28 16:00:00 29.7 8 Este 15 Este 0 1001.9 0.1 45
2019-05-28 15:00:00 30.1 9 Sur 19 Sur 0 1001.8 0.3 42
2019-05-28 14:00:00 28.9 10 Sudeste 17 Sur 0 1001.8 0.6 50
2019-05-28 13:00:00 28.3 5 Este 12 Este 0 1001.8 0.9 47
2019-05-28 12:00:00 27.7 8 Sur 12 Sur 0 1001.5 0.8 47
2019-05-28 11:00:00 26.5 6 Este 10 Este 0 1001.2 0.8 50
2019-05-28 10:00:00 25.8 3 Este 8 Nordeste 0 1000.9 0.9 52
2019-05-28 09:00:00 24.2 3 Sudeste 6 Este 0 1000.7 0.9 53
2019-05-28 08:00:00 22.3 3 Nordeste 8 Sur 0 1000.4 0.6 49
2019-05-28 07:00:00 20.7 2 Oeste 6 Sur 0 1000 0.1 50
2019-05-28 06:00:00 20.5 3 Nordeste 7 Norte 0 999.8 -0.7 52
2019-05-28 05:00:00 21 2 Norte 9 Sur 0 999.8 -0.9 48
2019-05-28 04:00:00 22.6 9 Sur 13 Sur 0 999.9 -1.4 45
2019-05-28 03:00:00 22.1 3 Este 12 Nordeste 0 1000.5 -0.9 47
2019-05-28 02:00:00 22.7 8 Sudoeste 13 Sur 0 1000.7 -0.5 42
2019-05-28 01:00:00 21.8 4 Noroeste 6 Sudoeste 0 1001.3 0.3 46
2019-05-28 00:00:00 22.9 4 Oeste 14 Sur 0 1001.4 0.5 39
2019-05-27 23:00:00 22.8 10 Sur 14 Sur 0 1001.2 0.3 63
2019-05-27 22:00:00 21.7 3 Sur 10 Sur 0 1001 0 66
2019-05-27 21:00:00 23.1 7 Sur 10 Sur 0 1000.9 -0.4 63
2019-05-27 20:00:00 24.4 5 Sur 10 Sur 0 1000.9 -0.7 61
2019-05-27 19:00:00 24.4 9 Sur 18 Sur 0 1001 -1.3 54
2019-05-27 18:00:00 23.7 14 Sur 22 Sur 0 1001.3 -1.3 63
2019-05-27 17:00:00 23.2 15 Sur 22 Sur 0 1001.6 -1.7 65
2019-05-27 16:00:00 22.5 16 Sur 21 Sur 0 1002.3 -1.4 67
2019-05-27 15:00:00 22.6 14 Sur 19 Sudeste 0 1002.6 -1.2 63
2019-05-27 14:00:00 21.9 13 Sur 18 Sur 0 1003.3 -0.6 65
2019-05-27 13:00:00 22.8 9 Sudeste 14 Sudeste 0 1003.7 -0.2 65
2019-05-27 12:00:00 22.3 10 Sudeste 15 Sur 0 1003.8 0.2 70
2019-05-27 11:00:00 21.7 8 Sudeste 14 Sur 0 1003.9 0.4 67
2019-05-27 10:00:00 20.9 8 Sur 15 Sur 0 1003.9 0.7 67
2019-05-27 09:00:00 20.6 6 Sur 12 Sur 0 1003.6 0.5 65
2019-05-27 08:00:00 18.9 5 Sur 9 Sur 0 1003.5 0.1 65
2019-05-27 07:00:00 17.3 6 Sudoeste 10 Sudoeste 0 1003.2 -0.5 68
2019-05-27 06:00:00 17.5 7 Sudoeste 10 Sudoeste 0 1003.1 -1.1 64
2019-05-27 05:00:00 17.6 6 Sudoeste 12 Sudoeste 0 1003.4 -1.3 60
2019-05-27 04:00:00 18.4 8 Sudoeste 13 Sudoeste 0 1003.7 -1.5 55
2019-05-27 03:00:00 18.6 6 Sudoeste 14 Sudoeste 0 1004.2 -1.3 50
2019-05-27 02:00:00 18.8 9 Sudoeste 13 Sur 0 1004.7 -0.6 53
2019-05-27 01:00:00 18.8 6 Sudoeste 10 Sudoeste 0 1005.2 0.5 56
2019-05-27 00:00:00 18.6 5 Sudoeste 9 Sudoeste 0 1005.5 1 65
2019-05-26 23:00:00 18.8 4 Sudoeste 12 Sur 0 1005.3 0.8 64
2019-05-26 22:00:00 19.7 9 Sur 18 Sur 0 1004.7 -0.1 65
2019-05-26 21:00:00 20.5 13 Sur 22 Sur 0 1004.5 -0.8 62
2019-05-26 20:00:00 21 16 Sur 25 Sur 0 1004.5 -1.1 59
2019-05-26 19:00:00 22.2 10 Sur 19 Sur 0 1004.8 -1.4 54
2019-05-26 18:00:00 22.2 9 Sur 17 Sudeste 0 1005.3 -1.2 59
2019-05-26 17:00:00 21.4 10 Sudeste 21 Sur 0 1005.6 -1.4 65
2019-05-26 16:00:00 21.6 11 Sudeste 19 Sur 0 1006.2 -1 69
2019-05-26 15:00:00 21.8 12 Este 18 Este 0 1006.5 -1.1 63
2019-05-26 14:00:00 20.8 12 Sudeste 20 Este 0 1007 -0.6 73
2019-05-26 13:00:00 20.8 13 Este 23 Este 0 1007.2 -0.3 73
2019-05-26 12:00:00 20.8 10 Este 21 Nordeste 0 1007.6 0.3 72
2019-05-26 11:00:00 19.8 10 Este 18 Nordeste 0 1007.6 0.6 77
2019-05-26 10:00:00 18.8 9 Nordeste 18 Este 0 1007.5 0.9 84
2019-05-26 09:00:00 18.4 9 Nordeste 17 Este 0 1007.3 0.8 90
2019-05-26 08:00:00 18 8 Este 16 Este 0 1007 0.2 91
2019-05-26 07:00:00 17.1 8 Nordeste 20 Nordeste 0 1006.6 -0.7 94
2019-05-26 06:00:00 17.1 9 Este 20 Este 0 1006.5 -0.9 96
2019-05-26 05:00:00 17.3 11 Este 20 Nordeste 0 1006.8 -1.1 96
2019-05-26 04:00:00 17.5 10 Este 19 Este 0 1007.3 -0.7 95
2019-05-26 03:00:00 17.6 8 Este 19 Este 0 1007.4 -0.6 93
2019-05-26 02:00:00 17.6 9 Este 19 Este 0 1007.9 0.3 91
2019-05-26 01:00:00 17.8 8 Este 15 Este 0 1008 1 91
2019-05-26 00:00:00 18 8 Este 18 Este 0 1008 1.7 90
2019-05-25 23:00:00 17.8 6 Nordeste 14 Este 0 1007.6 1.7 92
2019-05-25 22:00:00 18.4 7 Este 14 Este 0 1007 1.2 90
2019-05-25 21:00:00 18.7 10 Este 15 Este 0 1006.3 0.4 89
2019-05-25 20:00:00 19.4 9 Sudeste 18 Sudeste 0 1005.9 0.1 87
2019-05-25 19:00:00 19.9 11 Sudeste 22 Sudeste 0 1005.8 -0.4 85
2019-05-25 18:00:00 20.5 12 Sur 21 Sur 0 1005.9 -0.3 80
2019-05-25 17:00:00 20.8 12 Sudeste 22 Sur 0 1005.8 -0.5 78
2019-05-25 16:00:00 20.3 14 Sudeste 22 Este 0 1006.2 -0.4 78
2019-05-25 15:00:00 21.7 13 Este 24 Sudeste 0 1006.2 0.1 71
2019-05-25 14:00:00 21.4 15 Este 28 Este 0 1006.3 0.6 71
2019-05-25 13:00:00 21.8 18 Este 24 Sudeste 0 1006.6 1.1 68
2019-05-25 12:00:00 21.1 11 Este 21 Este 0 1006.1 1.2 73
2019-05-25 11:00:00 20.6 13 Este 27 Este 0 1005.7 0.9 74
2019-05-25 10:00:00 19.5 13 Este 27 Nordeste 0 1005.5 1.1 80
2019-05-25 09:00:00 19 13 Nordeste 24 Nordeste 0 1004.9 0.7 81
2019-05-25 08:00:00 17.9 10 Nordeste 26 Este 0 1004.8 0.9 88
2019-05-25 07:00:00 17.6 13 Nordeste 24 Nordeste 0 1004.4 0.8 92
2019-05-25 06:00:00 17.4 11 Norte 25 Norte 0 1004.2 0.7 93
2019-05-25 05:00:00 17.4 10 Norte 25 Norte 0 1003.9 1.6 93
2019-05-25 04:00:00 17.4 14 Norte 31 Norte 0 1003.6 2.2 90
2019-05-25 03:00:00 17.6 18 Noroeste 57 Noroeste 0 1003.5 2.1 84
2019-05-25 02:00:00 21.9 25 Noroeste 59 Noroeste 0 1002.3 0.9 39
2019-05-25 01:00:00 21.6 15 Oeste 34 Sudoeste 0 1001.4 0.3 34
2019-05-25 00:00:00 21.5 16 Oeste 33 Noroeste 0 1001.4 0.6 34
2019-05-24 23:00:00 21.6 15 Oeste 34 Noroeste 0 1001.4 1.5 34
2019-05-24 22:00:00 21.5 10 Noroeste 23 Noroeste 0 1001.1 0 38
2019-05-24 21:00:00 21.8 10 Oeste 43 Oeste 0 1000.8 -0.1 43
2019-05-24 20:00:00 22.6 21 Noroeste 49 Noroeste 0 999.9 -1.8 42
2019-05-24 19:00:00 22 14 Oeste 52 Oeste 0 1001.1 -0.9 49
2019-05-24 18:00:00 21.4 17 Oeste 49 Oeste 0 1000.9 -1.7 53
2019-05-24 17:00:00 21.9 19 Oeste 44 Oeste 0 1001.7 -1.2 55
2019-05-24 16:00:00 22.2 13 Sudoeste 42 Oeste 0 1002 -1.5 53
2019-05-24 15:00:00 22 12 Sudoeste 36 Sur 0 1002.6 -0.6 57
2019-05-24 14:00:00 22.8 9 Sudoeste 34 Oeste 0 1002.9 -0.1 59
2019-05-24 13:00:00 21.5 11 Sudoeste 30 Sudoeste 0 1003.5 0.4 63
2019-05-24 12:00:00 22.8 11 Oeste 31 Oeste 0 1003.2 0.3 63
2019-05-24 11:00:00 23.5 14 Sudoeste 27 Sudoeste 0 1003 0.1 54
2019-05-24 10:00:00 22.5 6 Norte 17 Noroeste 0 1003.1 0.5 55
2019-05-24 09:00:00 22.3 4 Norte 21 Oeste 0 1002.9 -0.1 52
2019-05-24 08:00:00 18.8 4 Oeste 8 Sudoeste 0 1002.9 -0.5 53
2019-05-24 07:00:00 17.8 4 Sur 8 Sur 0 1002.6 -1.3 55
2019-05-24 06:00:00 18 5 Sudoeste 9 Sur 0 1003 -1.5 60
2019-05-24 05:00:00 18.1 3 Este 15 Sur 0 1003.4 -1.7 66
2019-05-24 04:00:00 18.4 9 Sur 13 Sur 0 1003.9 -1.8 64
2019-05-24 03:00:00 18.6 6 Sur 13 Sur 0 1004.5 -1.4 50
2019-05-24 02:00:00 18.2 7 Sur 10 Sur 0 1005.1 -0.5 55
2019-05-24 01:00:00 17.3 0 Calma 5 Norte 0 1005.7 0.6 69
2019-05-24 00:00:00 17.4 5 Noroeste 7 Norte 0 1005.9 0.7 76
2019-05-23 23:00:00 18.8 4 Norte 11 Sur 0 1005.6 0.6 55
2019-05-23 22:00:00 20.5 8 Sur 13 Sudoeste 0 1005.1 -0.3 45
2019-05-23 21:00:00 21.3 6 Sur 16 Sur 0 1005.2 -0.6 46
2019-05-23 20:00:00 22.4 10 Sur 19 Sur 0 1005 -1.4 39
2019-05-23 19:00:00 23.1 11 Sur 17 Sur 0 1005.4 -1.5 48
2019-05-23 18:00:00 23.3 10 Sur 19 Sur 0 1005.8 -1.5 48
2019-05-23 17:00:00 22.9 9 Sudeste 17 Sur 0 1006.4 -1.2 48
2019-05-23 16:00:00 22.7 8 Sudeste 19 Sudeste 0 1006.9 -0.8 54
2019-05-23 15:00:00 22.3 9 Sudeste 17 Sur 0 1007.3 -0.4 62
2019-05-23 14:00:00 21.5 10 Sur 20 Sur 0 1007.6 -0.1 68
2019-05-23 13:00:00 21.4 10 Sudeste 18 Sur 0 1007.7 0.3 70
2019-05-23 12:00:00 21 10 Sur 19 Sur 0 1007.7 0.6 70
2019-05-23 11:00:00 20.9 9 Sudeste 15 Sudeste 0 1007.7 0.6 71
2019-05-23 10:00:00 20.2 9 Sudeste 17 Sudeste 0 1007.4 0.5 74
2019-05-23 09:00:00 19 10 Sur 19 Sur 0 1007.1 0.2 79
2019-05-23 08:00:00 17.8 10 Sur 16 Sur 0 1007.1 -0.1 84
2019-05-23 07:00:00 17.3 10 Sur 16 Sur 0 1006.9 -0.5 86
2019-05-23 06:00:00 17.2 8 Sur 16 Sudeste 0 1006.9 -0.9 89
2019-05-23 05:00:00 17.3 10 Sudeste 15 Sudeste 0 1007.2 -0.7 92
2019-05-23 04:00:00 17.1 8 Sudeste 16 Sudeste 0 1007.4 -0.4 93
2019-05-23 03:00:00 17.1 7 Nordeste 14 Este 0 1007.8 0 92
2019-05-23 02:00:00 17.5 9 Este 14 Este 0 1007.9 0.4 92
2019-05-23 01:00:00 17.8 6 Sudeste 14 Sudeste 0 1007.8 0.9 92
2019-05-23 00:00:00 18 6 Sudeste 13 Sudeste 0 1007.8 1.1 93
2019-05-22 23:00:00 18.1 7 Sudeste 15 Sudeste 0 1007.5 1.1 91
2019-05-22 22:00:00 18.3 8 Sudeste 15 Sur 0 1006.9 0.4 90
2019-05-22 21:00:00 18.5 9 Sudeste 16 Sudeste 0 1006.7 0 88
2019-05-22 20:00:00 18.8 9 Sudeste 17 Sudeste 0 1006.4 -0.6 86
2019-05-22 19:00:00 19.6 10 Sur 17 Sudeste 0 1006.5 -0.8 80
2019-05-22 18:00:00 19.8 11 Sudeste 18 Sudeste 0 1006.7 -0.7 79
2019-05-22 17:00:00 20.7 12 Sur 21 Sudeste 0 1007 -0.6 75
2019-05-22 16:00:00 20.5 13 Este 21 Este 0 1007.3 -0.2 75
2019-05-22 15:00:00 20.9 11 Este 22 Este 0 1007.4 -0.1 73
2019-05-22 14:00:00 19.4 12 Este 22 Nordeste 0 1007.6 0.3 81
2019-05-22 13:00:00 19.6 12 Nordeste 24 Nordeste 0 1007.5 0.5 79
2019-05-22 12:00:00 18.9 14 Nordeste 21 Este 0 1007.5 0.8 81
2019-05-22 11:00:00 19.9 11 Este 19 Este 0 1007.3 0.9 77
2019-05-22 10:00:00 19.1 13 Este 19 Este 0 1007 1.2 82
2019-05-22 09:00:00 17.6 13 Sudeste 20 Sudeste 0 1006.7 1.2 88
2019-05-22 08:00:00 16.7 8 Este 15 Norte 0 1006.4 0.9 94
2019-05-22 07:00:00 15.8 11 Norte 18 Norte 0 1005.8 0.1 94
2019-05-22 06:00:00 16 5 Norte 18 Norte 0 1005.5 -0.2 89
2019-05-22 05:00:00 16.9 8 Norte 21 Noroeste 0 1005.5 -0.4 80
2019-05-22 04:00:00 17.2 5 Noroeste 12 Noroeste 0 1005.7 0 71
2019-05-22 03:00:00 18.2 6 Sudoeste 18 Oeste 0 1005.7 0.3 55
2019-05-22 02:00:00 17.6 5 Noroeste 8 Noroeste 0 1005.9 1.2 62
2019-05-22 01:00:00 19.6 0 Calma 16 Sudeste 0 1005.7 1.8 45
2019-05-22 00:00:00 21.6 6 Sur 42 Oeste 0 1005.4 1.7 40
2019-05-21 23:00:00 22 17 Noroeste 36 Noroeste 0 1004.7 1.3 35
2019-05-21 22:00:00 21.5 17 Noroeste 33 Noroeste 0 1003.9 0.4 36
2019-05-21 21:00:00 22 9 Oeste 24 Noroeste 0 1003.7 0 36
2019-05-21 20:00:00 23.6 9 Oeste 22 Noroeste 0 1003.4 -0.8 38
2019-05-21 19:00:00 25.4 10 Oeste 22 Noroeste 0 1003.5 -0.9 37
2019-05-21 18:00:00 25.2 8 Oeste 26 Sudoeste 0 1003.7 -1 40
2019-05-21 17:00:00 24.3 12 Sudoeste 27 Sudoeste 0 1004.2 -0.6 46
2019-05-21 16:00:00 24.4 11 Oeste 30 Oeste 0 1004.4 -0.6 47
2019-05-21 15:00:00 24.8 10 Oeste 25 Sudoeste 0 1004.7 -0.2 45
2019-05-21 14:00:00 24.3 9 Oeste 27 Oeste 0 1004.8 0.2 53
2019-05-21 13:00:00 23.9 9 Sudoeste 25 Oeste 0 1005 0.7 52
2019-05-21 12:00:00 23 10 Sudoeste 27 Oeste 0 1004.9 0.7 56
2019-05-21 11:00:00 22.7 10 Oeste 25 Sudoeste 0 1004.6 1 56
2019-05-21 10:00:00 22 9 Oeste 20 Sudoeste 0 1004.3 1.1 56
2019-05-21 09:00:00 20.5 9 Oeste 22 Noroeste 0 1004.2 1.1 62
2019-05-21 08:00:00 19.2 8 Oeste 21 Oeste 0 1003.6 0.4 66
2019-05-21 07:00:00 17.7 8 Oeste 27 Noroeste 0 1003.2 0.4 72
2019-05-21 06:00:00 17.8 10 Oeste 28 Oeste 0 1003.1 0 73
2019-05-21 05:00:00 17.9 8 Oeste 33 Oeste 0 1003.2 -0.6 73
2019-05-21 04:00:00 19.3 18 Oeste 41 Oeste 0 1002.8 -1 62
2019-05-21 03:00:00 18.7 8 Oeste 19 Oeste 0 1003.1 -0.6 56
2019-05-21 02:00:00 18.7 10 Oeste 21 Oeste 0 1003.8 0.4 55
2019-05-21 01:00:00 18.8 7 Sur 24 Noroeste 0 1003.8 1.5 53
2019-05-21 00:00:00 19.2 10 Oeste 25 Noroeste 0 1003.7 1.8 46